Time;durP1;ratioP1;P1;durP2;ratioP2;P2;SDS_P1;SDS_P2;PMS_P1;PMS_P2;Temp;Humidity;BMP_temperature;BMP_pressure;BME280_temperature;BME280_humidity;BME280_pressure;Samples;Min_cycle;Max_cycle;Signal;HPM_P1;HPM_P2
2022/04/01 00:00:09;;;;;;;8.77;4.90;;;;;;;;;;5008812;28;20464;-70
2022/04/01 00:02:36;;;;;;;9.65;4.38;;;;;;;;;;5007688;28;20072;-70
2022/04/01 00:05:02;;;;;;;13.00;5.20;;;;;;;;;;5008432;28;20032;-70
2022/04/01 00:07:27;;;;;;;11.55;4.95;;;;;;;;;;5007797;28;20033;-70
2022/04/01 00:09:53;;;;;;;11.90;5.20;;;;;;;;;;5008431;28;20048;-70
2022/04/01 00:12:18;;;;;;;12.48;4.82;;;;;;;;;;5008060;28;20029;-70
2022/04/01 00:14:43;;;;;;;12.07;6.35;;;;;;;;;;4994208;28;20042;-70
2022/04/01 00:17:09;;;;;;;8.40;5.22;;;;;;;;;;5002925;28;20057;-70
2022/04/01 00:19:34;;;;;;;9.70;4.78;;;;;;;;;;5004028;28;20064;-70
2022/04/01 00:22:00;;;;;;;10.50;5.80;;;;;;;;;;4994082;28;20763;-71
2022/04/01 00:24:26;;;;;;;10.85;5.53;;;;;;;;;;5004889;28;20045;-70
2022/04/01 00:26:51;;;;;;;11.98;7.05;;;;;;;;;;5006131;28;20479;-70
2022/04/01 00:29:16;;;;;;;16.15;7.25;;;;;;;;;;5004011;28;20061;-70
2022/04/01 00:31:43;;;;;;;13.20;7.47;;;;;;;;;;4998772;28;20053;-70
2022/04/01 00:34:17;;;;;;;13.13;7.10;;;;;;;;;;5002336;28;20042;-70
2022/04/01 00:36:48;;;;;;;15.77;8.60;;;;;;;;;;4988539;28;20045;-69
2022/04/01 00:39:15;;;;;;;16.15;8.73;;;;;;;;;;5006296;28;20038;-70
2022/04/01 00:41:44;;;;;;;14.15;7.53;;;;;;;;;;5008057;28;20037;-70
2022/04/01 00:44:14;;;;;;;15.18;8.40;;;;;;;;;;5018861;28;20068;-70
2022/04/01 00:46:43;;;;;;;19.27;9.68;;;;;;;;;;5028330;28;20479;-69
2022/04/01 00:49:09;;;;;;;22.55;10.73;;;;;;;;;;5002524;28;20041;-70
2022/04/01 00:51:37;;;;;;;19.67;9.10;;;;;;;;;;4990471;28;20081;-70
2022/04/01 00:54:03;;;;;;;18.52;10.35;;;;;;;;;;5012729;28;20041;-70
2022/04/01 00:56:32;;;;;;;21.13;10.77;;;;;;;;;;5007841;28;20030;-69
2022/04/01 00:58:58;;;;;;;19.20;9.55;;;;;;;;;;5007733;28;20034;-70
2022/04/01 01:01:25;;;;;;;19.90;10.30;;;;;;;;;;5007505;28;20057;-69
2022/04/01 01:03:51;;;;;;;20.45;9.40;;;;;;;;;;5004685;28;20084;-70
2022/04/01 01:06:18;;;;;;;20.88;10.82;;;;;;;;;;4986090;28;20042;-69
2022/04/01 01:08:44;;;;;;;19.77;9.93;;;;;;;;;;4996578;28;20038;-70
2022/04/01 01:11:09;;;;;;;19.27;9.43;;;;;;;;;;4996425;28;20057;-70
2022/04/01 01:13:35;;;;;;;20.17;9.65;;;;;;;;;;5005131;28;20112;-70
2022/04/01 01:16:01;;;;;;;20.60;9.40;;;;;;;;;;5007982;28;20813;-69
2022/04/01 01:18:26;;;;;;;22.08;12.18;;;;;;;;;;5012273;28;20125;-70
2022/04/01 01:20:51;;;;;;;19.13;9.55;;;;;;;;;;5003445;28;20039;-70
2022/04/01 01:23:17;;;;;;;21.75;11.48;;;;;;;;;;5009562;28;20599;-70
2022/04/01 01:25:42;;;;;;;20.95;10.32;;;;;;;;;;5012880;28;20404;-70
2022/04/01 01:28:08;;;;;;;18.10;9.23;;;;;;;;;;4999027;28;20061;-70
2022/04/01 01:30:33;;;;;;;17.95;9.90;;;;;;;;;;5012855;28;20041;-70
2022/04/01 01:33:01;;;;;;;22.85;12.02;;;;;;;;;;5014185;28;20085;-70
2022/04/01 01:35:28;;;;;;;18.52;9.57;;;;;;;;;;5013371;28;20095;-70
2022/04/01 01:37:54;;;;;;;20.55;12.77;;;;;;;;;;5012505;28;20121;-70
2022/04/01 01:40:19;;;;;;;22.05;11.73;;;;;;;;;;4999753;28;20053;-70
2022/04/01 01:42:44;;;;;;;20.77;10.55;;;;;;;;;;4994971;28;20057;-69
2022/04/01 01:45:10;;;;;;;19.65;10.10;;;;;;;;;;5006986;28;20038;-69
2022/04/01 01:47:35;;;;;;;25.00;12.57;;;;;;;;;;5014014;28;20045;-70
2022/04/01 01:55:29;;;;;;;19.02;9.75;;;;;;;;;;4993431;28;20046;-70
2022/04/01 01:57:56;;;;;;;22.85;11.52;;;;;;;;;;4987795;28;20043;-69
2022/04/01 02:00:22;;;;;;;17.88;9.57;;;;;;;;;;4976482;28;20062;-69
2022/04/01 02:02:49;;;;;;;22.75;11.95;;;;;;;;;;4975853;28;20063;-69
2022/04/01 02:05:16;;;;;;;27.63;15.30;;;;;;;;;;4987410;28;20497;-70
2022/04/01 02:07:41;;;;;;;24.58;12.70;;;;;;;;;;4983397;28;20046;-69
2022/04/01 02:10:07;;;;;;;25.05;12.73;;;;;;;;;;4994866;28;20798;-69
2022/04/01 02:12:32;;;;;;;27.17;13.82;;;;;;;;;;4995582;28;20038;-70
2022/04/01 02:14:59;;;;;;;26.90;14.60;;;;;;;;;;4993232;28;20053;-69
2022/04/01 02:17:24;;;;;;;18.80;9.55;;;;;;;;;;4995740;28;20057;-70
2022/04/01 02:19:50;;;;;;;27.05;14.48;;;;;;;;;;4994239;28;20228;-69
2022/04/01 02:22:16;;;;;;;23.48;13.32;;;;;;;;;;4992725;28;21491;-70
2022/04/01 02:24:41;;;;;;;28.00;14.60;;;;;;;;;;4989061;28;20038;-70
2022/04/01 02:27:07;;;;;;;25.67;14.05;;;;;;;;;;4988430;28;20138;-69
2022/04/01 02:29:33;;;;;;;23.58;11.45;;;;;;;;;;4984537;28;20109;-70
2022/04/01 02:31:58;;;;;;;22.80;11.32;;;;;;;;;;4992916;28;20157;-70
2022/04/01 02:34:25;;;;;;;19.42;9.55;;;;;;;;;;4991684;28;20121;-70
2022/04/01 02:36:50;;;;;;;19.02;9.57;;;;;;;;;;4991428;28;20542;-70
2022/04/01 02:39:16;;;;;;;29.95;14.90;;;;;;;;;;4975500;28;20039;-70
2022/04/01 02:41:41;;;;;;;20.88;11.73;;;;;;;;;;4985094;28;20121;-70
2022/04/01 02:44:12;;;;;;;13.15;6.82;;;;;;;;;;4973171;28;20495;-69
2022/04/01 02:46:43;;;;;;;21.92;11.52;;;;;;;;;;5003865;28;20104;-70
2022/04/01 02:49:11;;;;;;;21.33;12.05;;;;;;;;;;4985890;28;20042;-70
2022/04/01 02:51:39;;;;;;;17.77;9.77;;;;;;;;;;4988387;28;20121;-70
2022/04/01 02:54:06;;;;;;;22.45;12.82;;;;;;;;;;4985140;28;20077;-69
2022/04/01 02:56:33;;;;;;;18.05;10.10;;;;;;;;;;4983368;28;20038;-69
2022/04/01 02:59:00;;;;;;;20.48;10.75;;;;;;;;;;4972955;28;20045;-69
2022/04/01 03:01:26;;;;;;;20.95;11.27;;;;;;;;;;4984956;28;20405;-70
2022/04/01 03:03:52;;;;;;;19.67;13.00;;;;;;;;;;4991334;28;20045;-70
2022/04/01 03:06:18;;;;;;;18.73;11.27;;;;;;;;;;4998824;28;20042;-70
2022/04/01 03:08:43;;;;;;;17.40;9.25;;;;;;;;;;5011124;28;20084;-70
2022/04/01 03:11:09;;;;;;;19.92;11.10;;;;;;;;;;4999712;28;20030;-70
2022/04/01 03:13:34;;;;;;;17.75;10.10;;;;;;;;;;5011419;28;20118;-70
2022/04/01 03:15:59;;;;;;;15.73;9.05;;;;;;;;;;5008305;28;20425;-70
2022/04/01 03:18:25;;;;;;;14.90;8.65;;;;;;;;;;5011009;28;20087;-70
2022/04/01 03:20:50;;;;;;;15.10;8.02;;;;;;;;;;5007240;28;20081;-69
2022/04/01 03:23:15;;;;;;;12.05;6.97;;;;;;;;;;5005060;28;20018;-70
2022/04/01 03:25:41;;;;;;;15.55;9.35;;;;;;;;;;5009344;28;20038;-70
2022/04/01 03:28:07;;;;;;;11.55;7.25;;;;;;;;;;5010110;28;20037;-69
2022/04/01 03:30:32;;;;;;;13.98;6.05;;;;;;;;;;4993640;28;20128;-70
2022/04/01 03:32:58;;;;;;;12.15;8.68;;;;;;;;;;5002146;28;20057;-69
2022/04/01 03:35:24;;;;;;;10.48;5.88;;;;;;;;;;4992176;28;20064;-68
2022/04/01 03:37:50;;;;;;;12.63;7.63;;;;;;;;;;5010580;28;20029;-69
2022/04/01 03:40:15;;;;;;;13.80;5.65;;;;;;;;;;5010364;28;20045;-70
2022/04/01 03:42:42;;;;;;;11.27;6.45;;;;;;;;;;5007311;28;20116;-69
2022/04/01 03:45:07;;;;;;;12.00;7.80;;;;;;;;;;5010658;28;20046;-70
2022/04/01 03:47:51;;;;;;;9.25;5.57;;;;;;;;;;5002044;28;20038;-70
2022/04/01 03:50:22;;;;;;;10.75;6.93;;;;;;;;;;4993817;28;20519;-69
2022/04/01 03:52:47;;;;;;;7.13;4.45;;;;;;;;;;5020921;28;20029;-70
2022/04/01 03:55:13;;;;;;;8.43;5.00;;;;;;;;;;5023923;28;20453;-70
2022/04/01 03:57:40;;;;;;;8.25;5.40;;;;;;;;;;5009943;28;20049;-70
2022/04/01 04:00:12;;;;;;;6.18;4.05;;;;;;;;;;5009937;28;20030;-70
2022/04/01 04:02:42;;;;;;;8.25;5.55;;;;;;;;;;5001488;28;20046;-70
2022/04/01 04:05:09;;;;;;;8.52;3.53;;;;;;;;;;5000635;28;20093;-71
2022/04/01 04:07:35;;;;;;;7.70;4.45;;;;;;;;;;4980766;28;20080;-71
2022/04/01 04:10:03;;;;;;;6.82;3.97;;;;;;;;;;4989777;28;20116;-70
2022/04/01 04:12:30;;;;;;;6.10;4.43;;;;;;;;;;4990194;28;20027;-70
2022/04/01 04:14:56;;;;;;;6.30;3.70;;;;;;;;;;4989829;28;20447;-70
2022/04/01 04:17:36;;;;;;;6.43;4.32;;;;;;;;;;4991853;28;20640;-70
2022/04/01 04:20:13;;;;;;;6.88;4.60;;;;;;;;;;5006521;28;20101;-70
2022/04/01 04:23:23;;;;;;;9.15;5.68;;;;;;;;;;4971093;28;20085;-70
2022/04/01 04:26:01;;;;;;;7.88;5.80;;;;;;;;;;4968090;28;20062;-70
2022/04/01 04:28:28;;;;;;;12.07;5.90;;;;;;;;;;4981860;28;20113;-70
2022/04/01 04:31:00;;;;;;;9.35;6.00;;;;;;;;;;4985356;28;20042;-70
2022/04/01 04:33:29;;;;;;;8.85;4.32;;;;;;;;;;4982677;28;20125;-70
2022/04/01 04:36:00;;;;;;;12.10;6.43;;;;;;;;;;4988440;28;20030;-70
2022/04/01 04:38:28;;;;;;;9.10;5.22;;;;;;;;;;4986936;28;20046;-70
2022/04/01 04:40:54;;;;;;;10.50;7.00;;;;;;;;;;4989208;28;20041;-70
2022/04/01 04:43:23;;;;;;;10.75;6.03;;;;;;;;;;4989307;28;20034;-70
2022/04/01 04:45:51;;;;;;;11.57;6.10;;;;;;;;;;4989689;28;20038;-70
2022/04/01 04:48:17;;;;;;;10.98;6.28;;;;;;;;;;4976284;28;20141;-70
2022/04/01 04:50:47;;;;;;;9.00;5.25;;;;;;;;;;4970016;28;20119;-70
2022/04/01 04:53:14;;;;;;;9.85;6.78;;;;;;;;;;4977526;28;20125;-70
2022/04/01 04:55:41;;;;;;;10.65;5.85;;;;;;;;;;4985856;28;20054;-70
2022/04/01 04:58:12;;;;;;;9.15;5.40;;;;;;;;;;4981083;28;20039;-71
2022/04/01 05:00:39;;;;;;;10.57;6.30;;;;;;;;;;4996420;28;20045;-70
2022/04/01 05:03:23;;;;;;;8.63;5.50;;;;;;;;;;4998464;28;20041;-70
2022/04/01 05:05:56;;;;;;;9.35;5.63;;;;;;;;;;5007425;28;20049;-70
2022/04/01 05:08:59;;;;;;;8.52;4.43;;;;;;;;;;5008613;28;20037;-70
2022/04/01 05:11:49;;;;;;;10.25;6.70;;;;;;;;;;4995154;28;20113;-70
2022/04/01 05:14:35;;;;;;;10.90;7.22;;;;;;;;;;5005245;28;20061;-70
2022/04/01 05:17:07;;;;;;;10.88;6.72;;;;;;;;;;5005659;28;20025;-70
2022/04/01 05:19:36;;;;;;;11.90;7.22;;;;;;;;;;4989255;28;20534;-70
2022/04/01 05:22:05;;;;;;;9.80;5.75;;;;;;;;;;4972043;28;20530;-70
2022/04/01 05:24:43;;;;;;;10.90;5.68;;;;;;;;;;4980809;28;20046;-70
2022/04/01 05:27:23;;;;;;;11.57;7.32;;;;;;;;;;4979311;28;20169;-70
2022/04/01 05:30:01;;;;;;;10.27;6.22;;;;;;;;;;4983869;28;20043;-70
2022/04/01 05:32:31;;;;;;;9.45;5.70;;;;;;;;;;4989303;28;20551;-70
2022/04/01 05:35:00;;;;;;;11.68;5.80;;;;;;;;;;4982551;28;20600;-70
2022/04/01 05:37:28;;;;;;;6.55;4.13;;;;;;;;;;4975804;28;20049;-70
2022/04/01 05:39:55;;;;;;;9.27;5.45;;;;;;;;;;4988440;28;20045;-70
2022/04/01 05:42:22;;;;;;;10.80;5.65;;;;;;;;;;4989578;28;20037;-70
2022/04/01 05:44:48;;;;;;;10.07;5.68;;;;;;;;;;4993614;28;20668;-70
2022/04/01 05:47:16;;;;;;;8.45;4.80;;;;;;;;;;4987941;28;20124;-70
2022/04/01 05:49:44;;;;;;;10.13;5.55;;;;;;;;;;5006216;28;20106;-71
2022/04/01 05:52:11;;;;;;;11.30;6.00;;;;;;;;;;4995871;28;20166;-70
2022/04/01 05:54:38;;;;;;;12.77;6.53;;;;;;;;;;5002747;28;20053;-70
2022/04/01 05:57:06;;;;;;;11.82;5.95;;;;;;;;;;5008996;28;20042;-70
2022/04/01 05:59:33;;;;;;;12.52;7.13;;;;;;;;;;5003759;28;20053;-70
2022/04/01 06:02:43;;;;;;;14.07;7.97;;;;;;;;;;5002958;28;20038;-71
2022/04/01 06:05:12;;;;;;;10.45;5.55;;;;;;;;;;4990084;28;20153;-72
2022/04/01 06:08:17;;;;;;;10.93;5.47;;;;;;;;;;4989165;28;20030;-72
2022/04/01 06:11:15;;;;;;;11.70;6.15;;;;;;;;;;5006709;28;20073;-70
2022/04/01 06:14:07;;;;;;;9.90;5.22;;;;;;;;;;5007578;28;20506;-70
2022/04/01 06:16:33;;;;;;;9.23;4.32;;;;;;;;;;4993659;28;20054;-70
2022/04/01 06:19:01;;;;;;;10.88;5.93;;;;;;;;;;5006063;28;20542;-70
2022/04/01 06:21:27;;;;;;;10.75;5.53;;;;;;;;;;5007296;28;20050;-70
2022/04/01 06:24:22;;;;;;;11.65;7.53;;;;;;;;;;5002997;28;20858;-69
2022/04/01 06:26:55;;;;;;;13.52;7.75;;;;;;;;;;5005625;28;20042;-70
2022/04/01 06:29:39;;;;;;;11.15;6.97;;;;;;;;;;5004432;28;20481;-70
2022/04/01 06:32:15;;;;;;;9.45;5.72;;;;;;;;;;5010801;28;20025;-69
2022/04/01 06:34:59;;;;;;;14.35;9.02;;;;;;;;;;4990138;28;20042;-69
2022/04/01 06:37:29;;;;;;;14.35;8.85;;;;;;;;;;4974902;28;20460;-69
2022/04/01 06:40:05;;;;;;;12.93;7.13;;;;;;;;;;4974005;28;20124;-69
2022/04/01 06:42:33;;;;;;;11.68;5.50;;;;;;;;;;4982714;28;20039;-72
2022/04/01 06:44:59;;;;;;;8.35;5.03;;;;;;;;;;4972438;28;20133;-71
2022/04/01 06:47:24;;;;;;;14.10;8.02;;;;;;;;;;4990083;28;20165;-70
2022/04/01 06:49:50;;;;;;;13.27;7.47;;;;;;;;;;4983427;28;20058;-69
2022/04/01 06:52:16;;;;;;;14.38;7.20;;;;;;;;;;4979272;28;20070;-69
2022/04/01 06:54:42;;;;;;;10.65;6.20;;;;;;;;;;4973148;28;20066;-71
2022/04/01 06:57:07;;;;;;;11.65;6.82;;;;;;;;;;4996754;28;20590;-69
2022/04/01 06:59:34;;;;;;;13.32;7.28;;;;;;;;;;5010375;28;20591;-69
2022/04/01 07:02:00;;;;;;;14.55;6.93;;;;;;;;;;5009344;28;20042;-71
2022/04/01 07:04:25;;;;;;;13.23;7.03;;;;;;;;;;5008391;28;20042;-71
2022/04/01 07:06:51;;;;;;;14.52;8.52;;;;;;;;;;5008586;28;20828;-68
2022/04/01 07:09:18;;;;;;;9.93;5.25;;;;;;;;;;5003504;28;20034;-69
2022/04/01 07:11:43;;;;;;;14.00;8.82;;;;;;;;;;5006342;28;20034;-68
2022/04/01 07:14:09;;;;;;;15.70;7.38;;;;;;;;;;5006770;28;20060;-68
2022/04/01 07:16:34;;;;;;;14.65;7.93;;;;;;;;;;5005753;28;20026;-68
2022/04/01 07:19:01;;;;;;;18.77;9.02;;;;;;;;;;5008249;28;20595;-68
2022/04/01 07:21:27;;;;;;;15.77;8.77;;;;;;;;;;5001637;28;20042;-68
2022/04/01 07:23:52;;;;;;;18.33;10.25;;;;;;;;;;5006245;28;20050;-68
2022/04/01 07:26:19;;;;;;;10.98;6.47;;;;;;;;;;5006611;28;20108;-70
2022/04/01 07:28:44;;;;;;;17.63;10.27;;;;;;;;;;5012052;28;20053;-72
2022/04/01 07:33:54;;;;;;;15.63;8.00;;;;;;;;;;5006707;28;20540;-67
2022/04/01 07:36:20;;;;;;;14.18;6.55;;;;;;;;;;5004154;28;20507;-70
2022/04/01 07:38:45;;;;;;;22.85;12.57;;;;;;;;;;5008083;28;20045;-70
2022/04/01 07:41:11;;;;;;;24.73;13.10;;;;;;;;;;5006897;28;20029;-67
2022/04/01 07:43:36;;;;;;;16.88;8.20;;;;;;;;;;5001745;28;20458;-71
2022/04/01 07:46:03;;;;;;;22.13;10.30;;;;;;;;;;5006489;28;20041;-70
2022/04/01 07:48:28;;;;;;;17.77;7.88;;;;;;;;;;5009703;28;20045;-69
2022/04/01 07:50:53;;;;;;;20.95;9.43;;;;;;;;;;5005995;28;20048;-69
2022/04/01 07:53:19;;;;;;;20.35;9.23;;;;;;;;;;5005714;28;20120;-69
2022/04/01 07:55:48;;;;;;;17.40;8.05;;;;;;;;;;5007175;28;20033;-67
2022/04/01 07:58:14;;;;;;;24.20;11.52;;;;;;;;;;4988782;28;20053;-68
2022/04/01 08:00:39;;;;;;;26.20;12.30;;;;;;;;;;5001574;28;20037;-67
2022/04/01 08:03:05;;;;;;;30.35;13.60;;;;;;;;;;5006410;28;20054;-73
2022/04/01 08:05:30;;;;;;;28.02;13.18;;;;;;;;;;5006139;28;20125;-73
2022/04/01 08:07:55;;;;;;;24.08;12.80;;;;;;;;;;5007085;28;20475;-73
2022/04/01 08:10:21;;;;;;;18.13;8.38;;;;;;;;;;4994577;28;20042;-73
2022/04/01 08:12:46;;;;;;;28.35;12.55;;;;;;;;;;4997970;28;20046;-73
2022/04/01 08:15:12;;;;;;;25.17;12.30;;;;;;;;;;4999635;28;20050;-73
2022/04/01 08:17:38;;;;;;;25.42;12.60;;;;;;;;;;4998652;28;20084;-73
2022/04/01 08:20:04;;;;;;;31.30;15.70;;;;;;;;;;4992562;28;20076;-73
2022/04/01 08:22:30;;;;;;;30.85;14.75;;;;;;;;;;5005713;28;20053;-73
2022/04/01 08:24:55;;;;;;;29.02;14.02;;;;;;;;;;5005634;28;20034;-73
2022/04/01 08:27:21;;;;;;;29.95;13.38;;;;;;;;;;5004018;28;20061;-73
2022/04/01 08:29:46;;;;;;;22.50;10.23;;;;;;;;;;4998168;28;20038;-73
2022/04/01 08:32:12;;;;;;;23.40;11.18;;;;;;;;;;4997291;28;20029;-73
2022/04/01 08:34:37;;;;;;;30.48;15.70;;;;;;;;;;5007732;28;20065;-73
2022/04/01 08:37:05;;;;;;;19.52;9.10;;;;;;;;;;5005680;28;20502;-76
2022/04/01 08:39:31;;;;;;;28.08;15.20;;;;;;;;;;5006447;28;20523;-74
2022/04/01 08:41:57;;;;;;;24.50;10.82;;;;;;;;;;5005934;28;20037;-73
2022/04/01 08:44:22;;;;;;;22.15;8.90;;;;;;;;;;4997333;28;20037;-75
2022/04/01 08:46:48;;;;;;;23.85;11.35;;;;;;;;;;4993674;28;20072;-73
2022/04/01 08:49:13;;;;;;;19.35;8.93;;;;;;;;;;5003401;28;20420;-73
2022/04/01 08:51:39;;;;;;;24.15;12.60;;;;;;;;;;4987904;28;20070;-73
2022/04/01 08:54:05;;;;;;;21.35;10.55;;;;;;;;;;4999183;28;20531;-74
2022/04/01 08:56:30;;;;;;;16.42;7.28;;;;;;;;;;4991768;28;20054;-75
2022/04/01 08:58:55;;;;;;;14.25;6.18;;;;;;;;;;4996129;28;20084;-71
2022/04/01 09:01:21;;;;;;;27.08;12.60;;;;;;;;;;4997184;28;20082;-71
2022/04/01 09:03:46;;;;;;;16.20;8.00;;;;;;;;;;4994147;28;20030;-71
2022/04/01 09:06:12;;;;;;;23.15;12.10;;;;;;;;;;4997336;28;20037;-72
2022/04/01 09:08:40;;;;;;;15.80;7.03;;;;;;;;;;4994457;28;20088;-71
2022/04/01 09:11:10;;;;;;;20.80;13.00;;;;;;;;;;4997158;28;20029;-70
2022/04/01 09:13:38;;;;;;;20.13;10.55;;;;;;;;;;4996998;28;20072;-70
2022/04/01 09:16:03;;;;;;;17.85;10.95;;;;;;;;;;5005941;28;20042;-70
2022/04/01 09:18:35;;;;;;;16.95;8.55;;;;;;;;;;5005380;28;20041;-71
2022/04/01 09:21:01;;;;;;;16.00;9.65;;;;;;;;;;4998136;28;20054;-72
2022/04/01 09:23:27;;;;;;;16.92;8.93;;;;;;;;;;5003063;28;20147;-71
2022/04/01 09:25:53;;;;;;;15.35;6.97;;;;;;;;;;5004547;28;20026;-71
2022/04/01 09:28:29;;;;;;;18.65;9.68;;;;;;;;;;4989173;28;20045;-71
2022/04/01 09:30:59;;;;;;;18.63;8.02;;;;;;;;;;5004781;28;20806;-71
2022/04/01 09:33:31;;;;;;;16.58;8.85;;;;;;;;;;5001986;28;20038;-71
2022/04/01 09:36:03;;;;;;;16.30;8.73;;;;;;;;;;5001764;28;20038;-74
2022/04/01 09:38:28;;;;;;;16.00;7.32;;;;;;;;;;4989954;28;20026;-72
2022/04/01 09:40:53;;;;;;;17.00;9.15;;;;;;;;;;5010252;28;20419;-71
2022/04/01 09:43:24;;;;;;;10.32;5.00;;;;;;;;;;5004910;28;20045;-71
2022/04/01 09:45:49;;;;;;;14.45;8.50;;;;;;;;;;5008194;28;20034;-72
2022/04/01 09:48:19;;;;;;;12.70;6.43;;;;;;;;;;5006399;28;20038;-71
2022/04/01 09:50:55;;;;;;;11.55;6.35;;;;;;;;;;5005837;28;20038;-72
2022/04/01 09:53:21;;;;;;;12.60;6.20;;;;;;;;;;5003215;28;20026;-72
2022/04/01 09:55:51;;;;;;;14.70;8.18;;;;;;;;;;4995427;28;20419;-71
2022/04/01 09:58:19;;;;;;;10.82;5.25;;;;;;;;;;4994037;28;20057;-72
2022/04/01 10:00:45;;;;;;;9.00;5.45;;;;;;;;;;4996353;28;20026;-72
2022/04/01 10:03:12;;;;;;;13.07;6.85;;;;;;;;;;4998870;28;20041;-74
2022/04/01 10:05:39;;;;;;;14.80;7.07;;;;;;;;;;5001947;28;20203;-78
2022/04/01 10:08:07;;;;;;;15.27;8.48;;;;;;;;;;5004823;28;20049;-75
2022/04/01 10:10:33;;;;;;;14.60;8.30;;;;;;;;;;4996583;28;20049;-75
2022/04/01 10:13:01;;;;;;;13.63;7.60;;;;;;;;;;5009001;28;20033;-74
2022/04/01 10:15:29;;;;;;;15.18;6.53;;;;;;;;;;4998569;28;20033;-74
2022/04/01 10:17:57;;;;;;;14.68;8.10;;;;;;;;;;5003349;28;20092;-73
2022/04/01 10:20:34;;;;;;;13.88;6.80;;;;;;;;;;4999095;28;20034;-74
2022/04/01 10:23:11;;;;;;;13.82;7.65;;;;;;;;;;5000276;28;20029;-74
2022/04/01 10:25:39;;;;;;;12.18;6.00;;;;;;;;;;5001537;28;20084;-74
2022/04/01 10:28:05;;;;;;;12.13;7.68;;;;;;;;;;4997090;28;20038;-74
2022/04/01 10:30:32;;;;;;;14.20;8.05;;;;;;;;;;5002545;28;20587;-74
2022/04/01 10:32:58;;;;;;;13.80;6.80;;;;;;;;;;5007702;28;20549;-73
2022/04/01 10:35:28;;;;;;;6.55;4.20;;;;;;;;;;4999897;28;20057;-76
2022/04/01 10:37:55;;;;;;;9.38;5.18;;;;;;;;;;5001520;28;20476;-74
2022/04/01 10:40:21;;;;;;;11.15;7.57;;;;;;;;;;5003177;28;20042;-76
2022/04/01 10:42:48;;;;;;;10.48;5.78;;;;;;;;;;4999461;28;21387;-77
2022/04/01 10:45:13;;;;;;;9.63;6.03;;;;;;;;;;5017038;28;20569;-74
2022/04/01 10:53:51;;;;;;;10.68;5.65;;;;;;;;;;5005192;28;20084;-73
2022/04/01 10:56:23;;;;;;;9.05;5.60;;;;;;;;;;5004240;28;20065;-76
2022/04/01 10:59:18;;;;;;;10.77;6.57;;;;;;;;;;5007217;28;20036;-73
2022/04/01 11:01:53;;;;;;;12.10;5.93;;;;;;;;;;4988402;28;20121;-71
2022/04/01 11:04:18;;;;;;;9.88;5.90;;;;;;;;;;5005718;28;20066;-66
2022/04/01 11:07:11;;;;;;;9.65;6.32;;;;;;;;;;4997116;28;20074;-67
2022/04/01 11:09:38;;;;;;;10.85;5.95;;;;;;;;;;4980546;28;20104;-67
2022/04/01 11:12:15;;;;;;;13.18;6.88;;;;;;;;;;4991569;28;20071;-66
2022/04/01 11:15:19;;;;;;;10.35;5.78;;;;;;;;;;5008350;28;20917;-70
2022/04/01 11:17:44;;;;;;;14.30;6.63;;;;;;;;;;5004167;28;20040;-70
2022/04/01 11:20:18;;;;;;;10.98;6.68;;;;;;;;;;5007207;28;20037;-70
2022/04/01 11:23:02;;;;;;;9.75;6.93;;;;;;;;;;5001037;28;20080;-70
2022/04/01 11:25:36;;;;;;;11.82;6.32;;;;;;;;;;4998284;28;20053;-70
2022/04/01 11:28:10;;;;;;;8.65;4.50;;;;;;;;;;5007007;28;20053;-70
2022/04/01 11:30:41;;;;;;;9.32;5.78;;;;;;;;;;4990207;28;20038;-69
2022/04/01 11:33:08;;;;;;;8.82;6.13;;;;;;;;;;4998788;28;20045;-70
2022/04/01 11:35:39;;;;;;;5.97;4.30;;;;;;;;;;5005651;28;20049;-70
2022/04/01 11:38:05;;;;;;;8.93;5.50;;;;;;;;;;5007904;28;20022;-70
2022/04/01 11:40:33;;;;;;;8.70;4.38;;;;;;;;;;5000059;28;20038;-70
2022/04/01 11:43:02;;;;;;;10.73;6.40;;;;;;;;;;5005014;28;20038;-70
2022/04/01 11:45:30;;;;;;;9.57;4.93;;;;;;;;;;5021252;28;20675;-70
2022/04/01 11:47:56;;;;;;;8.85;5.63;;;;;;;;;;5003073;28;20041;-69
2022/04/01 11:50:23;;;;;;;9.80;6.00;;;;;;;;;;4993841;28;20041;-70
2022/04/01 11:52:59;;;;;;;8.60;4.72;;;;;;;;;;5007371;28;20899;-72
2022/04/01 11:55:26;;;;;;;9.05;4.70;;;;;;;;;;5006951;28;20767;-72
2022/04/01 11:57:54;;;;;;;5.88;3.25;;;;;;;;;;5004913;28;20034;-71
2022/04/01 12:00:26;;;;;;;8.35;5.15;;;;;;;;;;5007072;28;20046;-73
2022/04/01 12:02:52;;;;;;;10.25;5.18;;;;;;;;;;5005297;28;20546;-73
2022/04/01 12:05:18;;;;;;;7.43;4.25;;;;;;;;;;5005328;28;20029;-73
2022/04/01 12:10:40;;;;;;;8.73;4.18;;;;;;;;;;5005374;28;20530;-73
2022/04/01 12:13:09;;;;;;;7.43;3.85;;;;;;;;;;4984348;28;20038;-73
2022/04/01 12:15:37;;;;;;;5.22;2.75;;;;;;;;;;4984023;28;20046;-73
2022/04/01 12:18:05;;;;;;;7.00;3.67;;;;;;;;;;4986208;28;21022;-73
2022/04/01 12:20:32;;;;;;;4.57;2.50;;;;;;;;;;4977551;28;20043;-73
2022/04/01 12:23:01;;;;;;;6.65;3.42;;;;;;;;;;4974369;28;20526;-74
2022/04/01 12:25:29;;;;;;;5.57;3.58;;;;;;;;;;4979880;28;20053;-74
2022/04/01 12:27:57;;;;;;;5.82;3.25;;;;;;;;;;4991511;28;20150;-74
2022/04/01 12:30:41;;;;;;;4.82;2.97;;;;;;;;;;5003116;28;20044;-75
2022/04/01 12:33:24;;;;;;;9.80;4.75;;;;;;;;;;5000997;28;20052;-73
2022/04/01 12:35:52;;;;;;;5.40;3.65;;;;;;;;;;4997493;28;20134;-72
2022/04/01 12:38:18;;;;;;;5.78;3.03;;;;;;;;;;5002946;28;20056;-67
2022/04/01 12:40:47;;;;;;;7.95;3.30;;;;;;;;;;4997363;28;20037;-67
2022/04/01 12:43:27;;;;;;;6.88;3.90;;;;;;;;;;4988372;28;20246;-67
2022/04/01 12:45:57;;;;;;;5.82;3.88;;;;;;;;;;4998868;28;20535;-67
2022/04/01 12:48:24;;;;;;;7.03;4.03;;;;;;;;;;4998327;28;20073;-67
2022/04/01 12:50:49;;;;;;;7.05;3.53;;;;;;;;;;4997802;28;20030;-67
2022/04/01 12:53:15;;;;;;;5.80;3.40;;;;;;;;;;5002828;28;20049;-67
2022/04/01 12:55:40;;;;;;;7.88;4.63;;;;;;;;;;5002989;28;20652;-67
2022/04/01 12:58:12;;;;;;;6.35;4.18;;;;;;;;;;4986499;28;20044;-68
2022/04/01 13:00:37;;;;;;;5.90;3.72;;;;;;;;;;4991423;28;20511;-67
2022/04/01 13:03:03;;;;;;;5.38;3.33;;;;;;;;;;4999358;28;20126;-67
2022/04/01 13:05:28;;;;;;;6.22;3.40;;;;;;;;;;4989066;28;20073;-67
2022/04/01 13:07:54;;;;;;;4.00;2.67;;;;;;;;;;4997662;28;20026;-68
2022/04/01 13:10:21;;;;;;;7.72;3.55;;;;;;;;;;5003620;28;20042;-67
2022/04/01 13:12:47;;;;;;;7.45;4.20;;;;;;;;;;4985569;28;20601;-68
2022/04/01 13:15:17;;;;;;;6.18;3.63;;;;;;;;;;4985621;28;20042;-67
2022/04/01 13:17:50;;;;;;;8.82;3.00;;;;;;;;;;4986895;28;20050;-67
2022/04/01 13:20:20;;;;;;;6.68;3.63;;;;;;;;;;4987352;28;20072;-67
2022/04/01 13:22:46;;;;;;;4.75;2.38;;;;;;;;;;4979975;28;20014;-67
2022/04/01 13:25:18;;;;;;;5.43;2.95;;;;;;;;;;4991440;28;20038;-68
2022/04/01 13:27:46;;;;;;;5.20;3.13;;;;;;;;;;4996752;28;20057;-68
2022/04/01 13:30:12;;;;;;;3.83;2.88;;;;;;;;;;4991938;28;20057;-67
2022/04/01 13:32:41;;;;;;;5.68;3.17;;;;;;;;;;4984829;28;20046;-67
2022/04/01 13:35:07;;;;;;;6.28;3.65;;;;;;;;;;5000821;28;20041;-68
2022/04/01 13:37:36;;;;;;;4.25;2.88;;;;;;;;;;4998176;28;20046;-67
2022/04/01 13:40:03;;;;;;;4.38;2.78;;;;;;;;;;4983673;28;20034;-67
2022/04/01 13:42:29;;;;;;;5.93;3.13;;;;;;;;;;4989487;28;20648;-67
2022/04/01 13:44:56;;;;;;;7.18;3.67;;;;;;;;;;5002861;28;20124;-72
2022/04/01 13:47:23;;;;;;;6.80;3.72;;;;;;;;;;4992560;28;20065;-73
2022/04/01 13:49:49;;;;;;;5.82;3.72;;;;;;;;;;4998625;28;20038;-73
2022/04/01 13:52:15;;;;;;;6.18;4.10;;;;;;;;;;5001445;28;20045;-73
2022/04/01 13:54:40;;;;;;;10.43;3.90;;;;;;;;;;5002719;28;20057;-72
2022/04/01 13:57:10;;;;;;;4.97;2.60;;;;;;;;;;4997082;28;20104;-72
2022/04/01 13:59:36;;;;;;;6.45;3.28;;;;;;;;;;4982618;28;20042;-73
2022/04/01 14:02:01;;;;;;;8.77;3.65;;;;;;;;;;4989741;28;20054;-73
2022/04/01 14:04:26;;;;;;;7.65;4.38;;;;;;;;;;4997116;28;20868;-73
2022/04/01 14:06:52;;;;;;;4.93;3.60;;;;;;;;;;4983264;28;20968;-73
2022/04/01 14:09:22;;;;;;;8.25;2.70;;;;;;;;;;5001879;28;20423;-73
2022/04/01 14:11:51;;;;;;;12.15;5.05;;;;;;;;;;5007514;28;20561;-73
2022/04/01 14:14:17;;;;;;;7.95;4.20;;;;;;;;;;4999704;28;20096;-73
2022/04/01 14:16:43;;;;;;;7.35;4.30;;;;;;;;;;5003578;28;20033;-73
2022/04/01 14:19:11;;;;;;;7.35;4.00;;;;;;;;;;5003260;28;20042;-73
2022/04/01 14:21:37;;;;;;;6.43;4.13;;;;;;;;;;4995504;28;20061;-73
2022/04/01 14:24:03;;;;;;;5.75;4.32;;;;;;;;;;4982801;28;21100;-73
2022/04/01 14:26:29;;;;;;;7.18;4.30;;;;;;;;;;4990108;28;20076;-73
2022/04/01 14:28:56;;;;;;;6.18;3.85;;;;;;;;;;5003775;28;20050;-73
2022/04/01 14:31:21;;;;;;;7.70;5.00;;;;;;;;;;5003897;28;20442;-73
2022/04/01 14:33:48;;;;;;;8.15;4.95;;;;;;;;;;5000196;28;20035;-73
2022/04/01 14:36:14;;;;;;;6.22;3.60;;;;;;;;;;5004634;28;20308;-73
2022/04/01 14:38:40;;;;;;;6.50;3.88;;;;;;;;;;5002452;28;20041;-78
2022/04/01 14:41:06;;;;;;;7.55;4.28;;;;;;;;;;5005909;28;20030;-79
2022/04/01 14:43:31;;;;;;;6.15;3.83;;;;;;;;;;5005719;28;20038;-70
2022/04/01 14:45:57;;;;;;;8.00;4.30;;;;;;;;;;5005278;28;20088;-73
2022/04/01 14:48:22;;;;;;;7.75;4.93;;;;;;;;;;5002319;28;20141;-74
2022/04/01 14:50:48;;;;;;;6.50;3.70;;;;;;;;;;5002504;28;20092;-74
2022/04/01 14:53:14;;;;;;;6.18;3.95;;;;;;;;;;5000861;28;20128;-71
2022/04/01 14:55:40;;;;;;;7.95;3.97;;;;;;;;;;5005770;28;20179;-70